CheckWX is a tool to help pilots better visualize weather data.  It is not intended as a substitute for an official pre-flight weather briefing.

02:59:45 UTC

KSUZ METAR
Saline County Regional Airport
Benton, Arkansas, USA
Current

25 mins ago

KSUZ 250235Z AUTO 25013KT 10SM FEW025 FEW035 BKN050 25/23 A2990 RMK A01
Observed
May-25 @ 02:35 UTC
Wind
  • 250° at 13 KTS
Visibility
Flight Rules
VFR
Cloud Levels
  • Few at 2,500' AGL
  • Few at 3,500' AGL
  • Broken at 5,000' AGL
Temperature
25°C / 77°F
Dewpoint
23°C / 73°F
Humidity
89%
Altimeter
29.9" Hg
Pressure
1012.52 hPa
Previous

45 mins ago

KSUZ 250215Z AUTO 00000KT 10SM CLR 24/22 A2989 RMK A01
Observed
May-25 @ 02:15 UTC
Visibility
Flight Rules
VFR
Cloud Levels
  • Clear skies
Temperature
24°C / 75°F
Dewpoint
22°C / 72°F
Humidity
89%
Altimeter
29.89" Hg
Pressure
1012.22 hPa
Previous

1 hour ago

KSUZ 250155Z AUTO 00000KT 10SM CLR 25/23 A2989 RMK A01
Observed
May-25 @ 01:55 UTC
Visibility
Flight Rules
VFR
Cloud Levels
  • Clear skies
Temperature
25°C / 77°F
Dewpoint
23°C / 73°F
Humidity
89%
Altimeter
29.89" Hg
Pressure
1012.22 hPa